Decoded Metar for KLFT (LAFAYETTE in LA, USA) (IATA:LFT) | Meteo·Mobile Aviation Weather
aviador You're here:

KLFT Decoded Metar

LAFAYETTE in LA, USA
Report Time2018-11-19 03:53:00
UTC Time2018-11-19 04:47:31
Flight Rules vfr VFR
WindCalm
Visibility9999 m
Phenomena:N/A
Clouds:N/A
Expected CloudBase > 400 ft AGL from Temp-Dew spread
CeilingNone
Temp14°C (ISA -1)
Dew Point13°C (94% RH)
QNH1022 hPa
Density Alt-177 ft
Elevation36 ft
Report Wrong Elevation
Raw Report
KLFT 190353Z 00000KT 10SM CLR 14/13 A3017 RMK AO2 SLP214
T01440133=

Extra information for KLFT:More info

Metar Taf Metar & Taf Last 4 Metars F.Rules Stats Wind Profile Meteogram Temp Stats Airport Information Weather charts Add Link Nearby VenuesMetar ALERT Operation Metar Decoded Social comments

AIRNAV info for KLFT